sensor_id;sensor_type;location;lat;lon;timestamp;P1;durP1;ratioP1;P2;durP2;ratioP2
47513;SDS011;33951;51.988;5.910;2022-11-23T00:00:35;19.40;;;12.65;;
47513;SDS011;33951;51.988;5.910;2022-11-23T00:03:01;23.00;;;13.48;;
47513;SDS011;33951;51.988;5.910;2022-11-23T00:05:28;18.20;;;12.68;;
47513;SDS011;33951;51.988;5.910;2022-11-23T00:07:55;29.27;;;13.77;;
47513;SDS011;33951;51.988;5.910;2022-11-23T00:10:21;20.13;;;12.57;;
47513;SDS011;33951;51.988;5.910;2022-11-23T00:12:46;22.20;;;13.27;;
47513;SDS011;33951;51.988;5.910;2022-11-23T00:15:13;21.02;;;13.38;;
47513;SDS011;33951;51.988;5.910;2022-11-23T00:17:39;22.95;;;13.52;;
47513;SDS011;33951;51.988;5.910;2022-11-23T00:20:06;22.85;;;13.25;;
47513;SDS011;33951;51.988;5.910;2022-11-23T00:22:32;24.15;;;14.43;;
47513;SDS011;33951;51.988;5.910;2022-11-23T00:25:01;22.40;;;13.77;;
47513;SDS011;33951;51.988;5.910;2022-11-23T00:27:27;23.42;;;15.15;;
47513;SDS011;33951;51.988;5.910;2022-11-23T00:29:52;28.63;;;14.98;;
47513;SDS011;33951;51.988;5.910;2022-11-23T00:32:20;24.90;;;15.75;;
47513;SDS011;33951;51.988;5.910;2022-11-23T00:34:46;27.35;;;15.27;;
47513;SDS011;33951;51.988;5.910;2022-11-23T00:37:11;18.98;;;13.38;;
47513;SDS011;33951;51.988;5.910;2022-11-23T00:39:37;24.33;;;14.35;;
47513;SDS011;33951;51.988;5.910;2022-11-23T00:42:03;24.55;;;14.13;;
47513;SDS011;33951;51.988;5.910;2022-11-23T00:44:29;23.95;;;13.60;;
47513;SDS011;33951;51.988;5.910;2022-11-23T00:46:57;26.48;;;14.98;;
47513;SDS011;33951;51.988;5.910;2022-11-23T00:49:22;25.67;;;15.35;;
47513;SDS011;33951;51.988;5.910;2022-11-23T00:51:48;25.80;;;15.60;;
47513;SDS011;33951;51.988;5.910;2022-11-23T00:54:16;24.13;;;14.45;;
47513;SDS011;33951;51.988;5.910;2022-11-23T00:56:41;27.20;;;14.80;;
47513;SDS011;33951;51.988;5.910;2022-11-23T00:59:08;33.80;;;14.43;;
47513;SDS011;33951;51.988;5.910;2022-11-23T06:07:13;19.98;;;6.13;;
47513;SDS011;33951;51.988;5.910;2022-11-23T06:13:10;15.80;;;3.92;;
47513;SDS011;33951;51.988;5.910;2022-11-23T06:35:36;24.73;;;5.15;;
47513;SDS011;33951;51.988;5.910;2022-11-23T06:38:22;23.75;;;5.30;;
47513;SDS011;33951;51.988;5.910;2022-11-23T06:40:48;17.73;;;4.65;;
47513;SDS011;33951;51.988;5.910;2022-11-23T06:46:46;15.50;;;5.28;;
47513;SDS011;33951;51.988;5.910;2022-11-23T06:52:59;15.90;;;4.30;;
47513;SDS011;33951;51.988;5.910;2022-11-23T06:58:43;25.67;;;4.35;;
47513;SDS011;33951;51.988;5.910;2022-11-23T07:01:42;23.88;;;5.40;;
47513;SDS011;33951;51.988;5.910;2022-11-23T07:04:41;19.58;;;5.63;;
47513;SDS011;33951;51.988;5.910;2022-11-23T07:13:59;19.33;;;4.22;;
47513;SDS011;33951;51.988;5.910;2022-11-23T07:17:16;24.27;;;5.50;;
47513;SDS011;33951;51.988;5.910;2022-11-23T07:33:32;25.00;;;4.88;;
47513;SDS011;33951;51.988;5.910;2022-11-23T07:36:01;25.63;;;5.53;;
47513;SDS011;33951;51.988;5.910;2022-11-23T07:41:59;23.75;;;5.78;;
47513;SDS011;33951;51.988;5.910;2022-11-23T07:48:23;22.17;;;4.50;;
47513;SDS011;33951;51.988;5.910;2022-11-23T07:51:32;18.90;;;4.20;;
47513;SDS011;33951;51.988;5.910;2022-11-23T07:54:01;24.05;;;5.43;;
47513;SDS011;33951;51.988;5.910;2022-11-23T07:56:41;21.95;;;5.28;;
47513;SDS011;33951;51.988;5.910;2022-11-23T08:02:38;22.58;;;5.07;;
47513;SDS011;33951;51.988;5.910;2022-11-23T08:05:08;22.02;;;5.65;;
47513;SDS011;33951;51.988;5.910;2022-11-23T08:07:42;19.45;;;3.70;;
47513;SDS011;33951;51.988;5.910;2022-11-23T08:10:49;26.17;;;4.88;;
47513;SDS011;33951;51.988;5.910;2022-11-23T08:13:43;17.73;;;3.35;;
47513;SDS011;33951;51.988;5.910;2022-11-23T08:16:39;29.88;;;5.90;;
47513;SDS011;33951;51.988;5.910;2022-11-23T08:22:05;23.45;;;5.32;;
47513;SDS011;33951;51.988;5.910;2022-11-23T08:24:54;19.30;;;4.68;;
47513;SDS011;33951;51.988;5.910;2022-11-23T08:28:08;13.95;;;4.22;;
47513;SDS011;33951;51.988;5.910;2022-11-23T08:30:55;27.00;;;5.00;;
47513;SDS011;33951;51.988;5.910;2022-11-23T08:33:34;20.77;;;5.25;;
47513;SDS011;33951;51.988;5.910;2022-11-23T08:36:03;27.85;;;5.22;;
47513;SDS011;33951;51.988;5.910;2022-11-23T08:38:59;21.80;;;5.35;;
47513;SDS011;33951;51.988;5.910;2022-11-23T08:41:42;20.65;;;4.22;;
47513;SDS011;33951;51.988;5.910;2022-11-23T08:44:37;24.90;;;4.35;;
47513;SDS011;33951;51.988;5.910;2022-11-23T08:47:13;21.63;;;4.25;;
47513;SDS011;33951;51.988;5.910;2022-11-23T08:49:48;29.33;;;4.78;;
47513;SDS011;33951;51.988;5.910;2022-11-23T08:55:32;15.82;;;3.90;;
47513;SDS011;33951;51.988;5.910;2022-11-23T08:58:23;17.10;;;3.90;;
47513;SDS011;33951;51.988;5.910;2022-11-23T09:01:07;21.42;;;3.80;;
47513;SDS011;33951;51.988;5.910;2022-11-23T09:04:04;16.00;;;4.35;;
47513;SDS011;33951;51.988;5.910;2022-11-23T09:06:34;20.40;;;4.30;;
47513;SDS011;33951;51.988;5.910;2022-11-23T09:09:42;14.38;;;3.35;;
47513;SDS011;33951;51.988;5.910;2022-11-23T09:12:19;23.63;;;4.28;;
47513;SDS011;33951;51.988;5.910;2022-11-23T09:27:35;21.48;;;4.30;;
47513;SDS011;33951;51.988;5.910;2022-11-23T09:30:14;18.30;;;3.72;;
47513;SDS011;33951;51.988;5.910;2022-11-23T09:32:54;15.43;;;3.28;;
47513;SDS011;33951;51.988;5.910;2022-11-23T09:38:50;14.45;;;3.88;;
47513;SDS011;33951;51.988;5.910;2022-11-23T09:49:39;14.33;;;4.57;;
47513;SDS011;33951;51.988;5.910;2022-11-23T10:00:10;15.00;;;3.67;;
47513;SDS011;33951;51.988;5.910;2022-11-23T10:13:13;17.33;;;3.58;;
47513;SDS011;33951;51.988;5.910;2022-11-23T10:36:20;15.82;;;3.97;;
47513;SDS011;33951;51.988;5.910;2022-11-23T10:38:48;16.60;;;3.22;;
47513;SDS011;33951;51.988;5.910;2022-11-23T10:41:39;11.73;;;2.95;;
47513;SDS011;33951;51.988;5.910;2022-11-23T10:44:36;25.85;;;4.45;;
47513;SDS011;33951;51.988;5.910;2022-11-23T10:47:03;10.32;;;3.38;;
47513;SDS011;33951;51.988;5.910;2022-11-23T10:49:34;15.10;;;3.10;;
47513;SDS011;33951;51.988;5.910;2022-11-23T10:52:27;13.50;;;2.28;;
47513;SDS011;33951;51.988;5.910;2022-11-23T10:54:57;15.50;;;3.40;;
47513;SDS011;33951;51.988;5.910;2022-11-23T10:57:41;14.77;;;3.20;;
47513;SDS011;33951;51.988;5.910;2022-11-23T11:02:41;15.38;;;3.40;;
47513;SDS011;33951;51.988;5.910;2022-11-23T11:07:50;11.15;;;2.95;;
47513;SDS011;33951;51.988;5.910;2022-11-23T11:10:31;17.55;;;3.65;;
47513;SDS011;33951;51.988;5.910;2022-11-23T11:15:59;11.23;;;2.60;;
47513;SDS011;33951;51.988;5.910;2022-11-23T11:18:38;10.35;;;3.00;;
47513;SDS011;33951;51.988;5.910;2022-11-23T11:21:05;9.38;;;2.63;;
47513;SDS011;33951;51.988;5.910;2022-11-23T11:23:46;14.02;;;3.10;;
47513;SDS011;33951;51.988;5.910;2022-11-23T11:26:26;16.02;;;3.00;;
47513;SDS011;33951;51.988;5.910;2022-11-23T11:29:04;11.85;;;3.65;;
47513;SDS011;33951;51.988;5.910;2022-11-23T11:36:44;14.02;;;2.92;;
47513;SDS011;33951;51.988;5.910;2022-11-23T11:39:26;9.23;;;2.40;;
47513;SDS011;33951;51.988;5.910;2022-11-23T11:42:04;12.18;;;3.03;;
47513;SDS011;33951;51.988;5.910;2022-11-23T11:44:37;11.43;;;2.85;;
47513;SDS011;33951;51.988;5.910;2022-11-23T11:47:49;8.38;;;2.20;;
47513;SDS011;33951;51.988;5.910;2022-11-23T11:50:05;13.25;;;2.80;;
47513;SDS011;33951;51.988;5.910;2022-11-23T11:52:42;13.88;;;3.25;;
47513;SDS011;33951;51.988;5.910;2022-11-23T11:55:21;9.40;;;2.45;;
47513;SDS011;33951;51.988;5.910;2022-11-23T11:58:07;12.57;;;2.30;;
47513;SDS011;33951;51.988;5.910;2022-11-23T12:00:38;14.95;;;2.80;;
47513;SDS011;33951;51.988;5.910;2022-11-23T12:05:54;12.63;;;2.90;;
47513;SDS011;33951;51.988;5.910;2022-11-23T12:09:02;12.63;;;2.47;;
47513;SDS011;33951;51.988;5.910;2022-11-23T12:11:51;8.77;;;2.72;;
47513;SDS011;33951;51.988;5.910;2022-11-23T12:14:20;10.95;;;2.38;;
47513;SDS011;33951;51.988;5.910;2022-11-23T12:23:21;11.48;;;2.67;;
47513;SDS011;33951;51.988;5.910;2022-11-23T12:25:43;11.02;;;2.58;;
47513;SDS011;33951;51.988;5.910;2022-11-23T12:28:36;6.57;;;2.15;;
47513;SDS011;33951;51.988;5.910;2022-11-23T12:40:24;8.77;;;2.15;;
47513;SDS011;33951;51.988;5.910;2022-11-23T12:52:02;10.77;;;2.47;;
47513;SDS011;33951;51.988;5.910;2022-11-23T12:54:52;7.55;;;2.20;;
47513;SDS011;33951;51.988;5.910;2022-11-23T12:57:39;9.85;;;2.05;;
47513;SDS011;33951;51.988;5.910;2022-11-23T13:00:17;10.25;;;2.63;;
47513;SDS011;33951;51.988;5.910;2022-11-23T13:14:59;7.75;;;1.88;;
47513;SDS011;33951;51.988;5.910;2022-11-23T13:23:48;14.80;;;4.38;;
47513;SDS011;33951;51.988;5.910;2022-11-23T13:26:21;5.97;;;1.80;;
47513;SDS011;33951;51.988;5.910;2022-11-23T13:29:44;12.35;;;2.30;;
47513;SDS011;33951;51.988;5.910;2022-11-23T13:38:24;7.88;;;1.83;;
47513;SDS011;33951;51.988;5.910;2022-11-23T13:40:50;8.50;;;2.28;;
47513;SDS011;33951;51.988;5.910;2022-11-23T13:43:28;11.27;;;2.42;;
47513;SDS011;33951;51.988;5.910;2022-11-23T13:46:16;10.13;;;2.80;;
47513;SDS011;33951;51.988;5.910;2022-11-23T13:48:51;10.60;;;2.35;;
47513;SDS011;33951;51.988;5.910;2022-11-23T13:51:30;8.32;;;1.85;;
47513;SDS011;33951;51.988;5.910;2022-11-23T13:54:03;11.50;;;2.55;;
47513;SDS011;33951;51.988;5.910;2022-11-23T13:56:50;10.63;;;1.88;;
47513;SDS011;33951;51.988;5.910;2022-11-23T13:59:42;11.55;;;4.00;;
47513;SDS011;33951;51.988;5.910;2022-11-23T14:02:35;9.80;;;2.20;;
47513;SDS011;33951;51.988;5.910;2022-11-23T14:08:16;5.80;;;1.58;;
47513;SDS011;33951;51.988;5.910;2022-11-23T14:10:50;75.25;;;46.67;;
47513;SDS011;33951;51.988;5.910;2022-11-23T14:13:24;20.77;;;8.18;;
47513;SDS011;33951;51.988;5.910;2022-11-23T14:15:59;11.57;;;1.88;;
47513;SDS011;33951;51.988;5.910;2022-11-23T14:21:17;8.65;;;2.38;;
47513;SDS011;33951;51.988;5.910;2022-11-23T14:42:22;7.65;;;1.67;;
47513;SDS011;33951;51.988;5.910;2022-11-23T14:44:51;7.28;;;2.38;;
47513;SDS011;33951;51.988;5.910;2022-11-23T14:47:44;6.53;;;2.03;;
47513;SDS011;33951;51.988;5.910;2022-11-23T14:50:32;6.05;;;2.58;;
47513;SDS011;33951;51.988;5.910;2022-11-23T14:53:04;6.45;;;1.90;;
47513;SDS011;33951;51.988;5.910;2022-11-23T14:55:36;5.07;;;1.85;;
47513;SDS011;33951;51.988;5.910;2022-11-23T14:58:10;8.48;;;2.65;;
47513;SDS011;33951;51.988;5.910;2022-11-23T15:00:49;8.43;;;1.90;;
47513;SDS011;33951;51.988;5.910;2022-11-23T15:03:25;6.82;;;2.05;;
47513;SDS011;33951;51.988;5.910;2022-11-23T15:06:03;7.03;;;2.50;;
47513;SDS011;33951;51.988;5.910;2022-11-23T15:08:40;8.52;;;2.92;;
47513;SDS011;33951;51.988;5.910;2022-11-23T15:11:24;7.57;;;2.33;;
47513;SDS011;33951;51.988;5.910;2022-11-23T15:13:54;10.18;;;2.28;;
47513;SDS011;33951;51.988;5.910;2022-11-23T15:16:26;10.65;;;2.80;;
47513;SDS011;33951;51.988;5.910;2022-11-23T15:19:14;8.90;;;2.38;;
47513;SDS011;33951;51.988;5.910;2022-11-23T15:21:55;7.10;;;2.50;;
47513;SDS011;33951;51.988;5.910;2022-11-23T15:24:24;7.53;;;2.67;;
47513;SDS011;33951;51.988;5.910;2022-11-23T15:27:03;8.35;;;3.03;;
47513;SDS011;33951;51.988;5.910;2022-11-23T15:29:36;10.82;;;2.75;;
47513;SDS011;33951;51.988;5.910;2022-11-23T15:35:08;15.65;;;3.13;;
47513;SDS011;33951;51.988;5.910;2022-11-23T15:37:56;5.72;;;2.55;;
47513;SDS011;33951;51.988;5.910;2022-11-23T15:40:50;8.60;;;2.50;;
47513;SDS011;33951;51.988;5.910;2022-11-23T15:43:29;9.60;;;3.10;;
47513;SDS011;33951;51.988;5.910;2022-11-23T15:48:35;7.65;;;2.63;;
47513;SDS011;33951;51.988;5.910;2022-11-23T15:51:04;8.35;;;2.50;;
47513;SDS011;33951;51.988;5.910;2022-11-23T15:53:38;14.13;;;2.92;;
47513;SDS011;33951;51.988;5.910;2022-11-23T15:59:00;8.57;;;2.58;;
47513;SDS011;33951;51.988;5.910;2022-11-23T16:01:28;6.40;;;2.53;;
47513;SDS011;33951;51.988;5.910;2022-11-23T16:03:57;10.77;;;3.30;;
47513;SDS011;33951;51.988;5.910;2022-11-23T16:07:05;7.22;;;2.65;;
47513;SDS011;33951;51.988;5.910;2022-11-23T16:09:44;7.43;;;3.20;;
47513;SDS011;33951;51.988;5.910;2022-11-23T16:12:20;9.98;;;3.28;;
47513;SDS011;33951;51.988;5.910;2022-11-23T16:14:55;6.30;;;3.47;;
47513;SDS011;33951;51.988;5.910;2022-11-23T16:17:25;8.50;;;3.63;;
47513;SDS011;33951;51.988;5.910;2022-11-23T16:19:55;5.18;;;2.90;;
47513;SDS011;33951;51.988;5.910;2022-11-23T16:22:33;11.85;;;3.35;;
47513;SDS011;33951;51.988;5.910;2022-11-23T16:28:01;7.05;;;3.83;;
47513;SDS011;33951;51.988;5.910;2022-11-23T16:36:09;15.00;;;5.03;;
47513;SDS011;33951;51.988;5.910;2022-11-23T16:38:37;9.57;;;3.47;;
47513;SDS011;33951;51.988;5.910;2022-11-23T16:41:05;15.13;;;4.32;;
47513;SDS011;33951;51.988;5.910;2022-11-23T16:46:50;10.27;;;4.03;;
47513;SDS011;33951;51.988;5.910;2022-11-23T16:49:28;9.40;;;4.05;;
47513;SDS011;33951;51.988;5.910;2022-11-23T16:52:06;11.75;;;4.22;;
47513;SDS011;33951;51.988;5.910;2022-11-23T16:57:32;11.40;;;4.50;;
47513;SDS011;33951;51.988;5.910;2022-11-23T17:00:00;11.35;;;4.70;;
47513;SDS011;33951;51.988;5.910;2022-11-23T17:02:28;8.87;;;4.43;;
47513;SDS011;33951;51.988;5.910;2022-11-23T17:04:56;11.32;;;5.07;;
47513;SDS011;33951;51.988;5.910;2022-11-23T17:07:31;14.30;;;5.38;;
47513;SDS011;33951;51.988;5.910;2022-11-23T17:09:59;9.75;;;5.70;;
47513;SDS011;33951;51.988;5.910;2022-11-23T17:12:27;9.85;;;5.97;;
47513;SDS011;33951;51.988;5.910;2022-11-23T17:14:58;9.15;;;4.90;;
47513;SDS011;33951;51.988;5.910;2022-11-23T17:17:26;10.40;;;5.10;;
47513;SDS011;33951;51.988;5.910;2022-11-23T17:19:54;13.52;;;6.45;;
47513;SDS011;33951;51.988;5.910;2022-11-23T17:22:22;9.82;;;5.60;;
47513;SDS011;33951;51.988;5.910;2022-11-23T17:24:48;12.95;;;6.00;;
47513;SDS011;33951;51.988;5.910;2022-11-23T17:27:20;11.27;;;5.88;;
47513;SDS011;33951;51.988;5.910;2022-11-23T17:29:59;10.35;;;5.72;;
47513;SDS011;33951;51.988;5.910;2022-11-23T17:33:16;9.10;;;5.50;;
47513;SDS011;33951;51.988;5.910;2022-11-23T17:36:33;12.18;;;6.25;;
47513;SDS011;33951;51.988;5.910;2022-11-23T17:42:37;11.32;;;6.38;;
47513;SDS011;33951;51.988;5.910;2022-11-23T17:51:18;14.10;;;5.50;;
47513;SDS011;33951;51.988;5.910;2022-11-23T17:53:57;10.55;;;5.32;;
47513;SDS011;33951;51.988;5.910;2022-11-23T17:56:46;10.13;;;6.07;;
47513;SDS011;33951;51.988;5.910;2022-11-23T17:59:17;9.65;;;5.15;;
47513;SDS011;33951;51.988;5.910;2022-11-23T18:02:20;14.80;;;6.40;;
47513;SDS011;33951;51.988;5.910;2022-11-23T18:05:03;11.25;;;4.90;;
47513;SDS011;33951;51.988;5.910;2022-11-23T18:14:25;7.78;;;4.20;;
47513;SDS011;33951;51.988;5.910;2022-11-23T18:16:54;8.65;;;4.47;;
47513;SDS011;33951;51.988;5.910;2022-11-23T18:19:20;7.32;;;4.28;;
47513;SDS011;33951;51.988;5.910;2022-11-23T18:24:14;6.75;;;4.72;;
47513;SDS011;33951;51.988;5.910;2022-11-23T18:26:40;5.72;;;4.50;;
47513;SDS011;33951;51.988;5.910;2022-11-23T18:29:06;9.05;;;5.13;;
47513;SDS011;33951;51.988;5.910;2022-11-23T18:31:39;9.60;;;4.95;;
47513;SDS011;33951;51.988;5.910;2022-11-23T18:34:07;16.65;;;6.55;;
47513;SDS011;33951;51.988;5.910;2022-11-23T18:36:33;11.27;;;6.03;;
47513;SDS011;33951;51.988;5.910;2022-11-23T18:38:59;10.00;;;5.40;;
47513;SDS011;33951;51.988;5.910;2022-11-23T18:41:25;11.15;;;5.65;;
47513;SDS011;33951;51.988;5.910;2022-11-23T18:43:51;13.77;;;5.70;;
47513;SDS011;33951;51.988;5.910;2022-11-23T18:46:17;10.75;;;5.90;;
47513;SDS011;33951;51.988;5.910;2022-11-23T18:48:49;10.48;;;7.10;;
47513;SDS011;33951;51.988;5.910;2022-11-23T18:51:19;12.43;;;6.47;;
47513;SDS011;33951;51.988;5.910;2022-11-23T18:53:47;8.45;;;5.82;;
47513;SDS011;33951;51.988;5.910;2022-11-23T18:56:17;17.23;;;9.55;;
47513;SDS011;33951;51.988;5.910;2022-11-23T18:58:45;13.02;;;6.90;;
47513;SDS011;33951;51.988;5.910;2022-11-23T19:01:13;33.03;;;21.83;;
47513;SDS011;33951;51.988;5.910;2022-11-23T19:03:41;36.92;;;27.15;;
47513;SDS011;33951;51.988;5.910;2022-11-23T19:06:11;11.35;;;7.40;;
47513;SDS011;33951;51.988;5.910;2022-11-23T19:08:40;10.18;;;6.65;;
47513;SDS011;33951;51.988;5.910;2022-11-23T19:11:14;12.85;;;7.72;;
47513;SDS011;33951;51.988;5.910;2022-11-23T19:13:43;12.45;;;7.55;;
47513;SDS011;33951;51.988;5.910;2022-11-23T19:16:14;14.80;;;7.18;;
47513;SDS011;33951;51.988;5.910;2022-11-23T19:18:42;10.27;;;6.65;;
47513;SDS011;33951;51.988;5.910;2022-11-23T19:21:18;11.32;;;7.25;;
47513;SDS011;33951;51.988;5.910;2022-11-23T19:23:51;13.00;;;7.32;;
47513;SDS011;33951;51.988;5.910;2022-11-23T19:26:26;12.25;;;7.25;;
47513;SDS011;33951;51.988;5.910;2022-11-23T19:28:53;12.68;;;7.45;;
47513;SDS011;33951;51.988;5.910;2022-11-23T19:31:22;13.93;;;8.20;;
47513;SDS011;33951;51.988;5.910;2022-11-23T19:33:59;20.25;;;9.00;;
47513;SDS011;33951;51.988;5.910;2022-11-23T19:36:29;19.65;;;8.80;;
47513;SDS011;33951;51.988;5.910;2022-11-23T19:39:00;11.27;;;7.57;;
47513;SDS011;33951;51.988;5.910;2022-11-23T19:41:29;16.48;;;8.13;;
47513;SDS011;33951;51.988;5.910;2022-11-23T19:44:00;11.52;;;7.28;;
47513;SDS011;33951;51.988;5.910;2022-11-23T19:46:31;15.07;;;9.73;;
47513;SDS011;33951;51.988;5.910;2022-11-23T19:51:49;14.00;;;8.03;;
47513;SDS011;33951;51.988;5.910;2022-11-23T19:54:28;20.60;;;11.20;;
47513;SDS011;33951;51.988;5.910;2022-11-23T19:56:59;22.90;;;10.05;;
47513;SDS011;33951;51.988;5.910;2022-11-23T19:59:25;16.63;;;8.90;;
47513;SDS011;33951;51.988;5.910;2022-11-23T20:01:56;14.30;;;8.63;;
47513;SDS011;33951;51.988;5.910;2022-11-23T20:04:28;9.85;;;7.32;;
47513;SDS011;33951;51.988;5.910;2022-11-23T20:06:57;19.77;;;9.10;;
47513;SDS011;33951;51.988;5.910;2022-11-23T20:09:28;13.80;;;8.80;;
47513;SDS011;33951;51.988;5.910;2022-11-23T20:11:54;14.07;;;7.82;;
47513;SDS011;33951;51.988;5.910;2022-11-23T20:14:26;11.57;;;7.43;;
47513;SDS011;33951;51.988;5.910;2022-11-23T20:17:01;20.20;;;8.10;;
47513;SDS011;33951;51.988;5.910;2022-11-23T20:19:38;17.23;;;8.30;;
47513;SDS011;33951;51.988;5.910;2022-11-23T20:22:10;17.77;;;8.15;;
47513;SDS011;33951;51.988;5.910;2022-11-23T20:24:41;27.35;;;15.55;;
47513;SDS011;33951;51.988;5.910;2022-11-23T20:27:07;18.85;;;9.38;;
47513;SDS011;33951;51.988;5.910;2022-11-23T20:29:50;23.02;;;8.20;;
47513;SDS011;33951;51.988;5.910;2022-11-23T20:32:18;18.92;;;8.05;;
47513;SDS011;33951;51.988;5.910;2022-11-23T20:34:56;26.58;;;8.82;;
47513;SDS011;33951;51.988;5.910;2022-11-23T20:37:25;15.13;;;7.05;;
47513;SDS011;33951;51.988;5.910;2022-11-23T20:39:51;21.20;;;8.07;;
47513;SDS011;33951;51.988;5.910;2022-11-23T20:42:23;21.40;;;8.38;;
47513;SDS011;33951;51.988;5.910;2022-11-23T20:44:55;18.63;;;8.18;;
47513;SDS011;33951;51.988;5.910;2022-11-23T20:47:38;18.77;;;7.18;;
47513;SDS011;33951;51.988;5.910;2022-11-23T20:50:24;16.25;;;7.18;;
47513;SDS011;33951;51.988;5.910;2022-11-23T20:53:01;15.18;;;7.55;;
47513;SDS011;33951;51.988;5.910;2022-11-23T20:58:40;19.02;;;9.45;;
47513;SDS011;33951;51.988;5.910;2022-11-23T21:01:20;16.95;;;8.40;;
47513;SDS011;33951;51.988;5.910;2022-11-23T21:04:14;21.10;;;9.07;;
47513;SDS011;33951;51.988;5.910;2022-11-23T21:06:43;16.23;;;8.55;;
47513;SDS011;33951;51.988;5.910;2022-11-23T21:09:23;21.02;;;8.35;;
47513;SDS011;33951;51.988;5.910;2022-11-23T21:12:21;18.38;;;7.63;;
47513;SDS011;33951;51.988;5.910;2022-11-23T21:15:13;21.77;;;7.47;;
47513;SDS011;33951;51.988;5.910;2022-11-23T21:17:47;21.30;;;8.05;;
47513;SDS011;33951;51.988;5.910;2022-11-23T21:20:32;16.15;;;7.28;;
47513;SDS011;33951;51.988;5.910;2022-11-23T21:23:23;30.80;;;9.77;;
47513;SDS011;33951;51.988;5.910;2022-11-23T21:31:52;31.48;;;12.95;;
47513;SDS011;33951;51.988;5.910;2022-11-23T21:37:30;21.35;;;9.25;;
47513;SDS011;33951;51.988;5.910;2022-11-23T21:40:15;23.70;;;6.80;;
47513;SDS011;33951;51.988;5.910;2022-11-23T21:42:44;26.75;;;9.55;;
47513;SDS011;33951;51.988;5.910;2022-11-23T21:45:12;30.83;;;8.88;;
47513;SDS011;33951;51.988;5.910;2022-11-23T21:47:56;24.17;;;8.02;;
47513;SDS011;33951;51.988;5.910;2022-11-23T21:50:32;21.98;;;7.57;;
47513;SDS011;33951;51.988;5.910;2022-11-23T21:53:04;22.73;;;7.78;;
47513;SDS011;33951;51.988;5.910;2022-11-23T21:55:36;29.83;;;9.73;;
47513;SDS011;33951;51.988;5.910;2022-11-23T21:58:04;22.77;;;6.22;;
47513;SDS011;33951;51.988;5.910;2022-11-23T22:00:36;28.15;;;8.88;;
47513;SDS011;33951;51.988;5.910;2022-11-23T22:03:40;25.58;;;9.00;;
47513;SDS011;33951;51.988;5.910;2022-11-23T22:06:17;19.42;;;6.78;;
47513;SDS011;33951;51.988;5.910;2022-11-23T22:08:47;35.92;;;9.38;;
47513;SDS011;33951;51.988;5.910;2022-11-23T22:11:24;25.17;;;6.85;;
47513;SDS011;33951;51.988;5.910;2022-11-23T22:14:04;29.25;;;7.45;;
47513;SDS011;33951;51.988;5.910;2022-11-23T22:16:38;34.30;;;8.02;;
47513;SDS011;33951;51.988;5.910;2022-11-23T22:19:17;32.80;;;7.18;;
47513;SDS011;33951;51.988;5.910;2022-11-23T22:21:50;28.98;;;6.78;;
47513;SDS011;33951;51.988;5.910;2022-11-23T22:24:21;29.70;;;8.40;;
47513;SDS011;33951;51.988;5.910;2022-11-23T22:29:48;26.75;;;6.60;;
47513;SDS011;33951;51.988;5.910;2022-11-23T22:32:32;30.48;;;6.90;;
47513;SDS011;33951;51.988;5.910;2022-11-23T22:35:07;36.00;;;8.70;;
47513;SDS011;33951;51.988;5.910;2022-11-23T22:37:38;31.13;;;8.68;;
47513;SDS011;33951;51.988;5.910;2022-11-23T22:40:12;37.50;;;8.00;;
47513;SDS011;33951;51.988;5.910;2022-11-23T22:43:06;29.20;;;9.10;;
47513;SDS011;33951;51.988;5.910;2022-11-23T22:45:47;37.80;;;7.50;;
47513;SDS011;33951;51.988;5.910;2022-11-23T22:51:49;27.45;;;7.28;;
47513;SDS011;33951;51.988;5.910;2022-11-23T22:54:35;27.10;;;7.25;;
47513;SDS011;33951;51.988;5.910;2022-11-23T22:57:06;36.55;;;7.55;;
47513;SDS011;33951;51.988;5.910;2022-11-23T22:59:44;20.83;;;6.60;;
47513;SDS011;33951;51.988;5.910;2022-11-23T23:02:17;33.67;;;7.25;;
47513;SDS011;33951;51.988;5.910;2022-11-23T23:05:06;18.98;;;5.85;;
47513;SDS011;33951;51.988;5.910;2022-11-23T23:07:55;33.65;;;8.10;;
47513;SDS011;33951;51.988;5.910;2022-11-23T23:10:26;33.30;;;6.53;;
47513;SDS011;33951;51.988;5.910;2022-11-23T23:13:06;38.33;;;8.00;;
47513;SDS011;33951;51.988;5.910;2022-11-23T23:15:32;31.85;;;6.88;;
47513;SDS011;33951;51.988;5.910;2022-11-23T23:18:01;27.33;;;6.22;;
47513;SDS011;33951;51.988;5.910;2022-11-23T23:20:29;37.47;;;7.97;;
47513;SDS011;33951;51.988;5.910;2022-11-23T23:23:02;33.85;;;6.05;;
47513;SDS011;33951;51.988;5.910;2022-11-23T23:25:37;26.23;;;7.63;;
47513;SDS011;33951;51.988;5.910;2022-11-23T23:28:06;27.98;;;6.82;;
47513;SDS011;33951;51.988;5.910;2022-11-23T23:31:29;29.30;;;7.32;;
47513;SDS011;33951;51.988;5.910;2022-11-23T23:34:03;35.25;;;7.70;;
47513;SDS011;33951;51.988;5.910;2022-11-23T23:36:53;25.27;;;5.93;;
47513;SDS011;33951;51.988;5.910;2022-11-23T23:42:47;32.97;;;7.03;;
47513;SDS011;33951;51.988;5.910;2022-11-23T23:45:24;32.08;;;6.30;;
47513;SDS011;33951;51.988;5.910;2022-11-23T23:48:05;32.20;;;7.18;;
47513;SDS011;33951;51.988;5.910;2022-11-23T23:50:54;31.90;;;7.05;;
47513;SDS011;33951;51.988;5.910;2022-11-23T23:53:34;34.13;;;6.38;;
47513;SDS011;33951;51.988;5.910;2022-11-23T23:56:32;41.65;;;7.32;;
